sensor_id;sensor_type;location;lat;lon;timestamp;temperature;humidity
54260;DHT22;40172;53.022;7.012;2023-06-10T00:00:24;16.20;99.90
54260;DHT22;40172;53.022;7.012;2023-06-10T00:02:50;16.20;99.90
54260;DHT22;40172;53.022;7.012;2023-06-10T00:05:15;16.10;99.90
54260;DHT22;40172;53.022;7.012;2023-06-10T00:07:41;16.10;99.90
54260;DHT22;40172;53.022;7.012;2023-06-10T00:10:07;16.10;99.90
54260;DHT22;40172;53.022;7.012;2023-06-10T00:12:33;16.10;99.90
54260;DHT22;40172;53.022;7.012;2023-06-10T00:15:04;16.00;99.90
54260;DHT22;40172;53.022;7.012;2023-06-10T00:17:30;15.90;99.90
54260;DHT22;40172;53.022;7.012;2023-06-10T00:19:56;15.90;99.90
54260;DHT22;40172;53.022;7.012;2023-06-10T00:22:22;15.90;99.90
54260;DHT22;40172;53.022;7.012;2023-06-10T00:24:47;15.90;99.90
54260;DHT22;40172;53.022;7.012;2023-06-10T00:27:13;15.80;99.90
54260;DHT22;40172;53.022;7.012;2023-06-10T00:29:39;15.80;99.90
54260;DHT22;40172;53.022;7.012;2023-06-10T00:32:05;15.80;99.90
54260;DHT22;40172;53.022;7.012;2023-06-10T00:34:31;15.80;99.90
54260;DHT22;40172;53.022;7.012;2023-06-10T00:36:57;15.70;99.90
54260;DHT22;40172;53.022;7.012;2023-06-10T00:39:23;15.70;99.90
54260;DHT22;40172;53.022;7.012;2023-06-10T00:41:48;15.60;99.90
54260;DHT22;40172;53.022;7.012;2023-06-10T00:44:15;15.60;99.90
54260;DHT22;40172;53.022;7.012;2023-06-10T00:46:41;15.50;99.90
54260;DHT22;40172;53.022;7.012;2023-06-10T00:49:07;15.50;99.90
54260;DHT22;40172;53.022;7.012;2023-06-10T00:51:34;15.40;99.90
54260;DHT22;40172;53.022;7.012;2023-06-10T00:54:00;15.40;99.90
54260;DHT22;40172;53.022;7.012;2023-06-10T00:56:26;15.30;99.90
54260;DHT22;40172;53.022;7.012;2023-06-10T00:58:53;15.30;99.90
54260;DHT22;40172;53.022;7.012;2023-06-10T01:01:19;15.20;99.90
54260;DHT22;40172;53.022;7.012;2023-06-10T01:03:45;15.10;99.90
54260;DHT22;40172;53.022;7.012;2023-06-10T01:06:29;15.10;99.90
54260;DHT22;40172;53.022;7.012;2023-06-10T01:09:11;15.00;99.90
54260;DHT22;40172;53.022;7.012;2023-06-10T01:11:47;15.00;99.90
54260;DHT22;40172;53.022;7.012;2023-06-10T01:14:15;14.90;99.90
54260;DHT22;40172;53.022;7.012;2023-06-10T01:16:42;14.90;99.90
54260;DHT22;40172;53.022;7.012;2023-06-10T01:19:08;14.80;99.90
54260;DHT22;40172;53.022;7.012;2023-06-10T01:21:33;14.80;99.90
54260;DHT22;40172;53.022;7.012;2023-06-10T01:23:59;14.70;99.90
54260;DHT22;40172;53.022;7.012;2023-06-10T01:26:32;14.70;99.90
54260;DHT22;40172;53.022;7.012;2023-06-10T01:29:06;14.70;99.90
54260;DHT22;40172;53.022;7.012;2023-06-10T01:34:10;14.60;99.90
54260;DHT22;40172;53.022;7.012;2023-06-10T01:36:36;14.50;99.90
54260;DHT22;40172;53.022;7.012;2023-06-10T01:39:03;14.50;99.90
54260;DHT22;40172;53.022;7.012;2023-06-10T01:41:31;14.50;99.90
54260;DHT22;40172;53.022;7.012;2023-06-10T01:43:56;14.40;99.90
54260;DHT22;40172;53.022;7.012;2023-06-10T01:46:22;14.40;99.90
54260;DHT22;40172;53.022;7.012;2023-06-10T01:48:48;14.40;99.90
54260;DHT22;40172;53.022;7.012;2023-06-10T01:51:14;14.30;99.90
54260;DHT22;40172;53.022;7.012;2023-06-10T01:53:39;14.30;99.90
54260;DHT22;40172;53.022;7.012;2023-06-10T01:56:05;14.20;99.90
54260;DHT22;40172;53.022;7.012;2023-06-10T01:58:30;14.20;99.90
54260;DHT22;40172;53.022;7.012;2023-06-10T02:00:56;14.10;99.90
54260;DHT22;40172;53.022;7.012;2023-06-10T02:03:22;14.10;99.90
54260;DHT22;40172;53.022;7.012;2023-06-10T02:05:47;14.00;99.90
54260;DHT22;40172;53.022;7.012;2023-06-10T02:08:13;14.00;99.90
54260;DHT22;40172;53.022;7.012;2023-06-10T02:10:38;14.00;99.90
54260;DHT22;40172;53.022;7.012;2023-06-10T02:13:04;14.00;99.90
54260;DHT22;40172;53.022;7.012;2023-06-10T02:15:30;13.90;99.90
54260;DHT22;40172;53.022;7.012;2023-06-10T02:17:55;13.90;99.90
54260;DHT22;40172;53.022;7.012;2023-06-10T02:20:22;13.80;99.90
54260;DHT22;40172;53.022;7.012;2023-06-10T02:22:47;13.80;99.90
54260;DHT22;40172;53.022;7.012;2023-06-10T02:25:13;13.70;99.90
54260;DHT22;40172;53.022;7.012;2023-06-10T02:27:38;13.70;99.90
54260;DHT22;40172;53.022;7.012;2023-06-10T02:30:06;13.70;99.90
54260;DHT22;40172;53.022;7.012;2023-06-10T02:32:31;13.60;99.90
54260;DHT22;40172;53.022;7.012;2023-06-10T02:34:57;13.60;99.90
54260;DHT22;40172;53.022;7.012;2023-06-10T02:37:23;13.60;99.90
54260;DHT22;40172;53.022;7.012;2023-06-10T02:39:48;13.50;99.90
54260;DHT22;40172;53.022;7.012;2023-06-10T02:42:14;13.50;99.90
54260;DHT22;40172;53.022;7.012;2023-06-10T02:44:40;13.50;99.90
54260;DHT22;40172;53.022;7.012;2023-06-10T02:47:05;13.40;99.90
54260;DHT22;40172;53.022;7.012;2023-06-10T02:49:31;13.40;99.90
54260;DHT22;40172;53.022;7.012;2023-06-10T02:51:56;13.30;99.90
54260;DHT22;40172;53.022;7.012;2023-06-10T02:54:23;13.30;99.90
54260;DHT22;40172;53.022;7.012;2023-06-10T02:56:50;13.20;99.90
54260;DHT22;40172;53.022;7.012;2023-06-10T02:59:16;13.20;99.90
54260;DHT22;40172;53.022;7.012;2023-06-10T03:01:42;13.20;99.90
54260;DHT22;40172;53.022;7.012;2023-06-10T03:04:08;13.20;99.90
54260;DHT22;40172;53.022;7.012;2023-06-10T03:06:34;13.20;99.90
54260;DHT22;40172;53.022;7.012;2023-06-10T03:09:04;13.10;99.90
54260;DHT22;40172;53.022;7.012;2023-06-10T03:11:29;13.10;99.90
54260;DHT22;40172;53.022;7.012;2023-06-10T03:13:56;13.10;99.90
54260;DHT22;40172;53.022;7.012;2023-06-10T03:16:21;13.00;99.90
54260;DHT22;40172;53.022;7.012;2023-06-10T03:18:48;13.00;99.90
54260;DHT22;40172;53.022;7.012;2023-06-10T03:21:14;13.00;99.90
54260;DHT22;40172;53.022;7.012;2023-06-10T03:23:39;13.00;99.90
54260;DHT22;40172;53.022;7.012;2023-06-10T03:26:05;13.00;99.90
54260;DHT22;40172;53.022;7.012;2023-06-10T03:28:31;12.90;99.90
54260;DHT22;40172;53.022;7.012;2023-06-10T03:30:57;12.90;99.90
54260;DHT22;40172;53.022;7.012;2023-06-10T03:33:22;12.90;99.90
54260;DHT22;40172;53.022;7.012;2023-06-10T03:35:48;12.90;99.90
54260;DHT22;40172;53.022;7.012;2023-06-10T03:38:14;12.90;99.90
54260;DHT22;40172;53.022;7.012;2023-06-10T03:40:39;13.00;99.90
54260;DHT22;40172;53.022;7.012;2023-06-10T03:43:05;13.00;99.90
54260;DHT22;40172;53.022;7.012;2023-06-10T03:45:31;13.00;99.90
54260;DHT22;40172;53.022;7.012;2023-06-10T03:47:57;13.00;99.90
54260;DHT22;40172;53.022;7.012;2023-06-10T03:50:23;13.00;99.90
54260;DHT22;40172;53.022;7.012;2023-06-10T03:52:50;13.00;99.90
54260;DHT22;40172;53.022;7.012;2023-06-10T03:55:16;13.10;99.90
54260;DHT22;40172;53.022;7.012;2023-06-10T03:57:42;13.10;99.90
54260;DHT22;40172;53.022;7.012;2023-06-10T04:00:09;13.10;99.90
54260;DHT22;40172;53.022;7.012;2023-06-10T04:02:38;13.10;99.90
54260;DHT22;40172;53.022;7.012;2023-06-10T04:05:12;13.10;99.90
54260;DHT22;40172;53.022;7.012;2023-06-10T04:07:37;13.10;99.90
54260;DHT22;40172;53.022;7.012;2023-06-10T04:10:06;13.20;99.90
54260;DHT22;40172;53.022;7.012;2023-06-10T04:12:32;13.20;99.90
54260;DHT22;40172;53.022;7.012;2023-06-10T04:14:58;13.20;99.90
54260;DHT22;40172;53.022;7.012;2023-06-10T04:17:24;13.30;99.90
54260;DHT22;40172;53.022;7.012;2023-06-10T04:19:49;13.30;99.90
54260;DHT22;40172;53.022;7.012;2023-06-10T04:22:16;13.30;99.90
54260;DHT22;40172;53.022;7.012;2023-06-10T04:24:42;13.40;99.90
54260;DHT22;40172;53.022;7.012;2023-06-10T04:27:08;13.40;99.90
54260;DHT22;40172;53.022;7.012;2023-06-10T04:29:33;13.50;99.90
54260;DHT22;40172;53.022;7.012;2023-06-10T04:31:59;13.50;99.90
54260;DHT22;40172;53.022;7.012;2023-06-10T04:34:27;13.50;99.90
54260;DHT22;40172;53.022;7.012;2023-06-10T04:36:53;13.60;99.90
54260;DHT22;40172;53.022;7.012;2023-06-10T04:39:18;13.60;99.90
54260;DHT22;40172;53.022;7.012;2023-06-10T04:41:45;13.60;99.90
54260;DHT22;40172;53.022;7.012;2023-06-10T04:44:11;13.70;99.90
54260;DHT22;40172;53.022;7.012;2023-06-10T04:46:37;13.80;99.90
54260;DHT22;40172;53.022;7.012;2023-06-10T04:49:02;13.80;99.90
54260;DHT22;40172;53.022;7.012;2023-06-10T04:51:28;13.90;99.90
54260;DHT22;40172;53.022;7.012;2023-06-10T04:53:54;13.90;99.90
54260;DHT22;40172;53.022;7.012;2023-06-10T04:56:19;14.00;99.90
54260;DHT22;40172;53.022;7.012;2023-06-10T04:58:45;14.00;99.90
54260;DHT22;40172;53.022;7.012;2023-06-10T05:01:11;14.10;99.90
54260;DHT22;40172;53.022;7.012;2023-06-10T05:03:36;14.20;99.90
54260;DHT22;40172;53.022;7.012;2023-06-10T05:06:02;14.30;99.90
54260;DHT22;40172;53.022;7.012;2023-06-10T05:08:27;14.30;99.90
54260;DHT22;40172;53.022;7.012;2023-06-10T05:10:53;14.40;99.90
54260;DHT22;40172;53.022;7.012;2023-06-10T05:13:18;14.50;99.90
54260;DHT22;40172;53.022;7.012;2023-06-10T05:15:44;14.50;99.90
54260;DHT22;40172;53.022;7.012;2023-06-10T05:18:11;14.60;99.90
54260;DHT22;40172;53.022;7.012;2023-06-10T05:20:38;14.60;99.90
54260;DHT22;40172;53.022;7.012;2023-06-10T05:23:03;14.70;99.90
54260;DHT22;40172;53.022;7.012;2023-06-10T05:25:33;14.80;99.90
54260;DHT22;40172;53.022;7.012;2023-06-10T05:27:59;14.90;99.90
54260;DHT22;40172;53.022;7.012;2023-06-10T05:30:24;14.90;99.90
54260;DHT22;40172;53.022;7.012;2023-06-10T05:32:51;15.00;99.90
54260;DHT22;40172;53.022;7.012;2023-06-10T05:35:17;15.00;99.90
54260;DHT22;40172;53.022;7.012;2023-06-10T05:37:43;15.00;99.90
54260;DHT22;40172;53.022;7.012;2023-06-10T05:40:09;15.10;99.90
54260;DHT22;40172;53.022;7.012;2023-06-10T05:42:35;15.10;99.90
54260;DHT22;40172;53.022;7.012;2023-06-10T05:45:01;15.20;99.90
54260;DHT22;40172;53.022;7.012;2023-06-10T05:47:27;15.30;99.90
54260;DHT22;40172;53.022;7.012;2023-06-10T05:49:53;15.30;99.90
54260;DHT22;40172;53.022;7.012;2023-06-10T05:52:18;15.40;99.90
54260;DHT22;40172;53.022;7.012;2023-06-10T05:54:44;15.40;99.90
54260;DHT22;40172;53.022;7.012;2023-06-10T05:57:09;15.50;99.90
54260;DHT22;40172;53.022;7.012;2023-06-10T05:59:36;15.50;99.90
54260;DHT22;40172;53.022;7.012;2023-06-10T06:02:01;15.60;99.90
54260;DHT22;40172;53.022;7.012;2023-06-10T06:04:27;15.60;99.90
54260;DHT22;40172;53.022;7.012;2023-06-10T06:06:52;15.60;99.90
54260;DHT22;40172;53.022;7.012;2023-06-10T06:09:18;15.70;99.90
54260;DHT22;40172;53.022;7.012;2023-06-10T06:11:43;15.80;99.90
54260;DHT22;40172;53.022;7.012;2023-06-10T06:14:09;15.90;99.90
54260;DHT22;40172;53.022;7.012;2023-06-10T06:16:35;15.90;99.90
54260;DHT22;40172;53.022;7.012;2023-06-10T06:19:00;16.10;99.90
54260;DHT22;40172;53.022;7.012;2023-06-10T06:21:26;16.20;99.90
54260;DHT22;40172;53.022;7.012;2023-06-10T06:23:52;16.30;99.90
54260;DHT22;40172;53.022;7.012;2023-06-10T06:26:17;16.40;99.90
54260;DHT22;40172;53.022;7.012;2023-06-10T06:28:43;16.50;99.90
54260;DHT22;40172;53.022;7.012;2023-06-10T06:31:08;16.60;99.90
54260;DHT22;40172;53.022;7.012;2023-06-10T06:33:34;16.70;99.90
54260;DHT22;40172;53.022;7.012;2023-06-10T06:35:59;16.80;99.90
54260;DHT22;40172;53.022;7.012;2023-06-10T06:38:28;17.00;99.90
54260;DHT22;40172;53.022;7.012;2023-06-10T06:40:53;17.20;99.90
54260;DHT22;40172;53.022;7.012;2023-06-10T06:43:19;17.30;99.90
54260;DHT22;40172;53.022;7.012;2023-06-10T06:45:45;17.50;99.90
54260;DHT22;40172;53.022;7.012;2023-06-10T06:48:12;17.60;99.90
54260;DHT22;40172;53.022;7.012;2023-06-10T06:50:37;17.70;99.90
54260;DHT22;40172;53.022;7.012;2023-06-10T06:53:03;17.80;99.90
54260;DHT22;40172;53.022;7.012;2023-06-10T06:55:29;18.00;99.90
54260;DHT22;40172;53.022;7.012;2023-06-10T06:57:55;18.20;99.90
54260;DHT22;40172;53.022;7.012;2023-06-10T07:00:21;18.40;99.90
54260;DHT22;40172;53.022;7.012;2023-06-10T07:02:47;18.50;99.90
54260;DHT22;40172;53.022;7.012;2023-06-10T07:05:13;18.60;99.90
54260;DHT22;40172;53.022;7.012;2023-06-10T07:07:39;18.80;99.90
54260;DHT22;40172;53.022;7.012;2023-06-10T07:10:04;18.80;99.90
54260;DHT22;40172;53.022;7.012;2023-06-10T07:12:30;19.00;99.90
54260;DHT22;40172;53.022;7.012;2023-06-10T07:14:56;19.00;99.90
54260;DHT22;40172;53.022;7.012;2023-06-10T07:17:21;19.10;99.90
54260;DHT22;40172;53.022;7.012;2023-06-10T07:19:47;19.20;99.90
54260;DHT22;40172;53.022;7.012;2023-06-10T07:22:14;19.30;99.90
54260;DHT22;40172;53.022;7.012;2023-06-10T07:24:40;20.20;99.90
54260;DHT22;40172;53.022;7.012;2023-06-10T07:27:06;19.60;99.90
54260;DHT22;40172;53.022;7.012;2023-06-10T07:29:32;19.70;99.90
54260;DHT22;40172;53.022;7.012;2023-06-10T07:31:58;19.80;99.90
54260;DHT22;40172;53.022;7.012;2023-06-10T07:34:23;19.90;99.90
54260;DHT22;40172;53.022;7.012;2023-06-10T07:36:49;20.10;99.90
54260;DHT22;40172;53.022;7.012;2023-06-10T07:39:15;20.00;99.90
54260;DHT22;40172;53.022;7.012;2023-06-10T07:41:40;20.00;99.90
54260;DHT22;40172;53.022;7.012;2023-06-10T07:44:06;20.10;99.90
54260;DHT22;40172;53.022;7.012;2023-06-10T07:46:31;20.10;99.90
54260;DHT22;40172;53.022;7.012;2023-06-10T07:48:57;20.20;99.90
54260;DHT22;40172;53.022;7.012;2023-06-10T07:51:22;20.20;99.90
54260;DHT22;40172;53.022;7.012;2023-06-10T07:53:48;20.30;99.90
54260;DHT22;40172;53.022;7.012;2023-06-10T07:56:14;20.40;99.90
54260;DHT22;40172;53.022;7.012;2023-06-10T07:58:39;20.50;99.90
54260;DHT22;40172;53.022;7.012;2023-06-10T08:01:05;20.60;99.90
54260;DHT22;40172;53.022;7.012;2023-06-10T08:03:31;20.70;99.90
54260;DHT22;40172;53.022;7.012;2023-06-10T08:05:56;20.80;99.90
54260;DHT22;40172;53.022;7.012;2023-06-10T08:08:22;20.90;99.90
54260;DHT22;40172;53.022;7.012;2023-06-10T08:10:47;21.00;99.90
54260;DHT22;40172;53.022;7.012;2023-06-10T08:13:14;21.10;99.90
54260;DHT22;40172;53.022;7.012;2023-06-10T08:15:40;21.20;99.90
54260;DHT22;40172;53.022;7.012;2023-06-10T08:18:06;21.30;99.90
54260;DHT22;40172;53.022;7.012;2023-06-10T08:20:31;21.40;99.90
54260;DHT22;40172;53.022;7.012;2023-06-10T08:22:57;21.60;99.90
54260;DHT22;40172;53.022;7.012;2023-06-10T08:25:23;21.70;99.90
54260;DHT22;40172;53.022;7.012;2023-06-10T08:27:49;21.70;99.90
54260;DHT22;40172;53.022;7.012;2023-06-10T08:30:16;21.80;99.90
54260;DHT22;40172;53.022;7.012;2023-06-10T08:32:42;21.80;99.90
54260;DHT22;40172;53.022;7.012;2023-06-10T08:35:07;21.90;99.90
54260;DHT22;40172;53.022;7.012;2023-06-10T08:37:33;21.90;99.90
54260;DHT22;40172;53.022;7.012;2023-06-10T08:39:59;22.00;99.90
54260;DHT22;40172;53.022;7.012;2023-06-10T08:42:39;22.00;99.90
54260;DHT22;40172;53.022;7.012;2023-06-10T08:45:11;22.10;99.90
54260;DHT22;40172;53.022;7.012;2023-06-10T08:47:39;22.10;99.90
54260;DHT22;40172;53.022;7.012;2023-06-10T08:50:07;22.20;99.90
54260;DHT22;40172;53.022;7.012;2023-06-10T08:52:37;22.30;99.90
54260;DHT22;40172;53.022;7.012;2023-06-10T08:57:37;22.70;99.90
54260;DHT22;40172;53.022;7.012;2023-06-10T09:00:05;22.80;99.90
54260;DHT22;40172;53.022;7.012;2023-06-10T09:02:31;22.80;99.90
54260;DHT22;40172;53.022;7.012;2023-06-10T09:05:00;22.90;99.90
54260;DHT22;40172;53.022;7.012;2023-06-10T09:07:26;23.00;99.90
54260;DHT22;40172;53.022;7.012;2023-06-10T09:09:53;23.10;99.90
54260;DHT22;40172;53.022;7.012;2023-06-10T09:12:20;23.20;99.40
54260;DHT22;40172;53.022;7.012;2023-06-10T09:14:45;23.10;98.70
54260;DHT22;40172;53.022;7.012;2023-06-10T09:17:11;23.10;98.60
54260;DHT22;40172;53.022;7.012;2023-06-10T09:19:38;23.10;98.40
54260;DHT22;40172;53.022;7.012;2023-06-10T09:22:05;23.20;98.70
54260;DHT22;40172;53.022;7.012;2023-06-10T09:24:31;23.20;99.10
54260;DHT22;40172;53.022;7.012;2023-06-10T09:27:05;23.30;97.30
54260;DHT22;40172;53.022;7.012;2023-06-10T09:29:48;23.30;96.10
54260;DHT22;40172;53.022;7.012;2023-06-10T09:32:17;23.30;96.70
54260;DHT22;40172;53.022;7.012;2023-06-10T09:34:43;23.50;96.30
54260;DHT22;40172;53.022;7.012;2023-06-10T09:37:09;23.60;95.40
54260;DHT22;40172;53.022;7.012;2023-06-10T09:39:38;23.80;95.40
54260;DHT22;40172;53.022;7.012;2023-06-10T09:42:24;23.80;94.90
54260;DHT22;40172;53.022;7.012;2023-06-10T09:44:52;24.00;96.70
54260;DHT22;40172;53.022;7.012;2023-06-10T09:47:22;24.10;95.00
54260;DHT22;40172;53.022;7.012;2023-06-10T09:49:49;24.30;93.50
54260;DHT22;40172;53.022;7.012;2023-06-10T09:52:21;24.30;93.30
54260;DHT22;40172;53.022;7.012;2023-06-10T09:54:48;24.20;93.90
54260;DHT22;40172;53.022;7.012;2023-06-10T09:57:13;24.40;92.90
54260;DHT22;40172;53.022;7.012;2023-06-10T09:59:40;24.40;92.60
54260;DHT22;40172;53.022;7.012;2023-06-10T10:02:06;24.50;93.00
54260;DHT22;40172;53.022;7.012;2023-06-10T10:04:34;24.50;91.60
54260;DHT22;40172;53.022;7.012;2023-06-10T10:07:00;24.50;91.70
54260;DHT22;40172;53.022;7.012;2023-06-10T10:09:25;24.60;91.10
54260;DHT22;40172;53.022;7.012;2023-06-10T10:11:52;24.80;90.40
54260;DHT22;40172;53.022;7.012;2023-06-10T10:14:20;24.80;89.40
54260;DHT22;40172;53.022;7.012;2023-06-10T10:16:46;24.90;87.60
54260;DHT22;40172;53.022;7.012;2023-06-10T10:19:40;25.00;89.40
54260;DHT22;40172;53.022;7.012;2023-06-10T10:22:13;25.00;87.30
54260;DHT22;40172;53.022;7.012;2023-06-10T10:24:48;24.90;85.20
54260;DHT22;40172;53.022;7.012;2023-06-10T10:27:18;24.90;84.30
54260;DHT22;40172;53.022;7.012;2023-06-10T10:29:48;24.90;81.80
54260;DHT22;40172;53.022;7.012;2023-06-10T10:32:16;25.00;82.40
54260;DHT22;40172;53.022;7.012;2023-06-10T10:34:53;25.10;86.00
54260;DHT22;40172;53.022;7.012;2023-06-10T10:37:23;25.20;80.80
54260;DHT22;40172;53.022;7.012;2023-06-10T10:39:49;25.30;80.50
54260;DHT22;40172;53.022;7.012;2023-06-10T10:42:15;25.40;82.40
54260;DHT22;40172;53.022;7.012;2023-06-10T10:44:42;25.50;79.50
54260;DHT22;40172;53.022;7.012;2023-06-10T10:47:08;25.40;78.50
54260;DHT22;40172;53.022;7.012;2023-06-10T10:49:37;26.00;77.40
54260;DHT22;40172;53.022;7.012;2023-06-10T10:52:03;25.60;78.90
54260;DHT22;40172;53.022;7.012;2023-06-10T10:54:35;25.60;76.80
54260;DHT22;40172;53.022;7.012;2023-06-10T10:59:52;25.70;73.00
54260;DHT22;40172;53.022;7.012;2023-06-10T11:02:45;25.60;72.10
54260;DHT22;40172;53.022;7.012;2023-06-10T11:05:15;25.50;72.10
54260;DHT22;40172;53.022;7.012;2023-06-10T11:07:41;25.50;74.50
54260;DHT22;40172;53.022;7.012;2023-06-10T11:10:16;25.60;72.70
54260;DHT22;40172;53.022;7.012;2023-06-10T11:15:32;25.70;72.00
54260;DHT22;40172;53.022;7.012;2023-06-10T11:21:02;25.90;71.50
54260;DHT22;40172;53.022;7.012;2023-06-10T11:26:15;26.00;70.50
54260;DHT22;40172;53.022;7.012;2023-06-10T11:28:42;26.10;69.40
54260;DHT22;40172;53.022;7.012;2023-06-10T11:31:13;26.00;70.10
54260;DHT22;40172;53.022;7.012;2023-06-10T11:33:44;26.10;69.90
54260;DHT22;40172;53.022;7.012;2023-06-10T11:36:09;26.10;70.40
54260;DHT22;40172;53.022;7.012;2023-06-10T11:38:35;26.00;68.40
54260;DHT22;40172;53.022;7.012;2023-06-10T11:41:02;26.00;67.80
54260;DHT22;40172;53.022;7.012;2023-06-10T11:43:28;26.00;67.40
54260;DHT22;40172;53.022;7.012;2023-06-10T11:45:55;26.00;67.80
54260;DHT22;40172;53.022;7.012;2023-06-10T11:48:23;26.10;69.00
54260;DHT22;40172;53.022;7.012;2023-06-10T11:50:49;26.20;69.30
54260;DHT22;40172;53.022;7.012;2023-06-10T11:53:15;26.20;67.00
54260;DHT22;40172;53.022;7.012;2023-06-10T11:55:47;26.10;67.20
54260;DHT22;40172;53.022;7.012;2023-06-10T11:58:17;26.10;64.70
54260;DHT22;40172;53.022;7.012;2023-06-10T12:00:50;26.00;66.20
54260;DHT22;40172;53.022;7.012;2023-06-10T12:03:17;26.00;64.60
54260;DHT22;40172;53.022;7.012;2023-06-10T12:06:00;26.10;65.40
54260;DHT22;40172;53.022;7.012;2023-06-10T12:08:27;26.00;65.90
54260;DHT22;40172;53.022;7.012;2023-06-10T12:10:53;26.00;66.30
54260;DHT22;40172;53.022;7.012;2023-06-10T12:13:19;26.00;67.10
54260;DHT22;40172;53.022;7.012;2023-06-10T12:15:45;25.90;67.50
54260;DHT22;40172;53.022;7.012;2023-06-10T12:18:22;26.00;67.50
54260;DHT22;40172;53.022;7.012;2023-06-10T12:20:48;26.00;64.70
54260;DHT22;40172;53.022;7.012;2023-06-10T12:23:16;25.90;66.30
54260;DHT22;40172;53.022;7.012;2023-06-10T12:25:53;25.90;66.90
54260;DHT22;40172;53.022;7.012;2023-06-10T12:28:22;25.90;66.80
54260;DHT22;40172;53.022;7.012;2023-06-10T12:30:48;26.00;66.70
54260;DHT22;40172;53.022;7.012;2023-06-10T12:33:20;26.00;67.80
54260;DHT22;40172;53.022;7.012;2023-06-10T12:35:51;25.90;68.10
54260;DHT22;40172;53.022;7.012;2023-06-10T12:38:24;26.00;68.80
54260;DHT22;40172;53.022;7.012;2023-06-10T12:40:50;25.90;68.80
54260;DHT22;40172;53.022;7.012;2023-06-10T12:43:20;25.90;68.90
54260;DHT22;40172;53.022;7.012;2023-06-10T12:45:46;25.80;69.00
54260;DHT22;40172;53.022;7.012;2023-06-10T12:48:18;25.80;69.50
54260;DHT22;40172;53.022;7.012;2023-06-10T12:50:44;25.70;69.10
54260;DHT22;40172;53.022;7.012;2023-06-10T12:53:11;25.70;69.70
54260;DHT22;40172;53.022;7.012;2023-06-10T12:55:37;25.70;70.10
54260;DHT22;40172;53.022;7.012;2023-06-10T12:58:03;25.70;71.00
54260;DHT22;40172;53.022;7.012;2023-06-10T13:00:29;26.00;71.50
54260;DHT22;40172;53.022;7.012;2023-06-10T13:03:00;25.80;72.10
54260;DHT22;40172;53.022;7.012;2023-06-10T13:05:26;25.70;73.10
54260;DHT22;40172;53.022;7.012;2023-06-10T13:07:52;26.00;70.70
54260;DHT22;40172;53.022;7.012;2023-06-10T13:10:18;25.90;70.80
54260;DHT22;40172;53.022;7.012;2023-06-10T13:12:44;26.00;71.00
54260;DHT22;40172;53.022;7.012;2023-06-10T13:15:10;26.00;70.90
54260;DHT22;40172;53.022;7.012;2023-06-10T13:17:36;26.00;69.60
54260;DHT22;40172;53.022;7.012;2023-06-10T13:20:03;26.00;69.30
54260;DHT22;40172;53.022;7.012;2023-06-10T13:22:31;26.00;70.70
54260;DHT22;40172;53.022;7.012;2023-06-10T13:25:07;26.00;70.00
54260;DHT22;40172;53.022;7.012;2023-06-10T13:27:36;26.00;66.70
54260;DHT22;40172;53.022;7.012;2023-06-10T13:30:05;26.10;67.00
54260;DHT22;40172;53.022;7.012;2023-06-10T13:32:31;26.10;68.90
54260;DHT22;40172;53.022;7.012;2023-06-10T13:34:57;26.10;70.30
54260;DHT22;40172;53.022;7.012;2023-06-10T13:37:23;26.10;70.70
54260;DHT22;40172;53.022;7.012;2023-06-10T13:39:48;26.30;69.90
54260;DHT22;40172;53.022;7.012;2023-06-10T13:42:17;26.20;70.80
54260;DHT22;40172;53.022;7.012;2023-06-10T13:44:44;26.20;69.30
54260;DHT22;40172;53.022;7.012;2023-06-10T13:47:10;26.20;70.40
54260;DHT22;40172;53.022;7.012;2023-06-10T13:49:36;26.20;71.20
54260;DHT22;40172;53.022;7.012;2023-06-10T13:52:02;26.20;70.40
54260;DHT22;40172;53.022;7.012;2023-06-10T13:54:28;26.20;71.10
54260;DHT22;40172;53.022;7.012;2023-06-10T13:56:53;26.20;70.90
54260;DHT22;40172;53.022;7.012;2023-06-10T13:59:20;26.20;70.40
54260;DHT22;40172;53.022;7.012;2023-06-10T14:01:46;26.30;68.20
54260;DHT22;40172;53.022;7.012;2023-06-10T14:04:11;26.30;66.90
54260;DHT22;40172;53.022;7.012;2023-06-10T14:06:37;26.20;64.30
54260;DHT22;40172;53.022;7.012;2023-06-10T14:09:03;26.30;62.10
54260;DHT22;40172;53.022;7.012;2023-06-10T14:11:29;26.30;63.20
54260;DHT22;40172;53.022;7.012;2023-06-10T14:13:58;26.30;65.40
54260;DHT22;40172;53.022;7.012;2023-06-10T14:16:24;26.40;65.80
54260;DHT22;40172;53.022;7.012;2023-06-10T14:18:50;26.40;66.40
54260;DHT22;40172;53.022;7.012;2023-06-10T14:21:19;26.40;67.00
54260;DHT22;40172;53.022;7.012;2023-06-10T14:23:44;26.30;65.30
54260;DHT22;40172;53.022;7.012;2023-06-10T14:26:11;26.30;62.90
54260;DHT22;40172;53.022;7.012;2023-06-10T14:28:36;26.40;62.70
54260;DHT22;40172;53.022;7.012;2023-06-10T14:31:02;26.30;62.30
54260;DHT22;40172;53.022;7.012;2023-06-10T14:33:27;26.40;60.90
54260;DHT22;40172;53.022;7.012;2023-06-10T14:35:53;26.40;60.10
54260;DHT22;40172;53.022;7.012;2023-06-10T14:38:19;26.40;59.60
54260;DHT22;40172;53.022;7.012;2023-06-10T14:40:45;26.40;58.40
54260;DHT22;40172;53.022;7.012;2023-06-10T14:43:10;26.40;58.80
54260;DHT22;40172;53.022;7.012;2023-06-10T14:45:37;26.50;58.10
54260;DHT22;40172;53.022;7.012;2023-06-10T14:48:04;26.40;57.00
54260;DHT22;40172;53.022;7.012;2023-06-10T14:50:29;26.40;57.00
54260;DHT22;40172;53.022;7.012;2023-06-10T14:52:55;26.50;59.30
54260;DHT22;40172;53.022;7.012;2023-06-10T14:55:20;26.50;58.60
54260;DHT22;40172;53.022;7.012;2023-06-10T14:57:48;26.40;56.30
54260;DHT22;40172;53.022;7.012;2023-06-10T15:00:14;26.60;55.60
54260;DHT22;40172;53.022;7.012;2023-06-10T15:02:42;26.60;55.60
54260;DHT22;40172;53.022;7.012;2023-06-10T15:05:08;26.60;56.70
54260;DHT22;40172;53.022;7.012;2023-06-10T15:07:34;26.60;58.20
54260;DHT22;40172;53.022;7.012;2023-06-10T15:09:59;26.70;57.10
54260;DHT22;40172;53.022;7.012;2023-06-10T15:12:25;26.70;56.60
54260;DHT22;40172;53.022;7.012;2023-06-10T15:14:50;26.70;56.60
54260;DHT22;40172;53.022;7.012;2023-06-10T15:17:16;26.70;57.00
54260;DHT22;40172;53.022;7.012;2023-06-10T15:19:42;26.70;56.80
54260;DHT22;40172;53.022;7.012;2023-06-10T15:22:07;26.80;56.20
54260;DHT22;40172;53.022;7.012;2023-06-10T15:24:33;26.90;56.20
54260;DHT22;40172;53.022;7.012;2023-06-10T15:26:59;26.90;55.50
54260;DHT22;40172;53.022;7.012;2023-06-10T15:29:24;26.80;54.70
54260;DHT22;40172;53.022;7.012;2023-06-10T15:31:50;26.90;54.60
54260;DHT22;40172;53.022;7.012;2023-06-10T15:34:16;26.90;53.20
54260;DHT22;40172;53.022;7.012;2023-06-10T15:36:41;26.90;53.90
54260;DHT22;40172;53.022;7.012;2023-06-10T15:39:07;26.90;54.40
54260;DHT22;40172;53.022;7.012;2023-06-10T15:41:35;26.90;54.00
54260;DHT22;40172;53.022;7.012;2023-06-10T15:44:01;27.00;51.90